Time;durP1;ratioP1;P1;durP2;ratioP2;P2;SDS_P1;SDS_P2;PMS_P1;PMS_P2;Temp;Humidity;BMP_temperature;BMP_pressure;BME280_temperature;BME280_humidity;BME280_pressure;Samples;Min_cycle;Max_cycle;Signal;HPM_P1;HPM_P2
2022/04/13 00:01:41;;;;;;;7.40;6.80;;;13.30;99.90;;;;;;5073578;28;20201;-67
2022/04/13 00:04:06;;;;;;;7.30;6.10;;;13.30;99.90;;;;;;5073882;28;20175;-66
2022/04/13 00:06:32;;;;;;;8.13;6.20;;;13.30;99.90;;;;;;5072240;28;20182;-67
2022/04/13 00:08:58;;;;;;;10.23;6.20;;;13.30;99.90;;;;;;5072045;28;20178;-67
2022/04/13 00:11:23;;;;;;;8.13;6.67;;;13.30;99.90;;;;;;5073456;28;20812;-67
2022/04/13 00:13:49;;;;;;;12.23;7.63;;;13.20;99.90;;;;;;5073122;28;20261;-66
2022/04/13 00:16:15;;;;;;;7.50;6.83;;;13.20;99.90;;;;;;5053201;28;20170;-67
2022/04/13 00:18:40;;;;;;;10.63;7.07;;;13.10;99.90;;;;;;5053311;28;20205;-66
2022/04/13 00:21:06;;;;;;;7.37;6.27;;;13.00;99.90;;;;;;5052421;28;20644;-66
2022/04/13 00:23:31;;;;;;;8.33;6.73;;;13.00;99.90;;;;;;5052078;28;20190;-67
2022/04/13 00:26:00;;;;;;;9.40;6.90;;;12.90;99.90;;;;;;5052894;28;20167;-67
2022/04/13 00:28:26;;;;;;;7.60;6.80;;;12.90;99.90;;;;;;5053253;28;20521;-67
2022/04/13 00:30:51;;;;;;;7.03;6.43;;;12.90;99.90;;;;;;5052824;28;20253;-66
2022/04/13 00:33:17;;;;;;;6.50;5.87;;;12.90;99.90;;;;;;5053096;28;20198;-66
2022/04/13 00:35:42;;;;;;;6.80;6.10;;;12.90;99.90;;;;;;5052975;28;20662;-67
2022/04/13 00:38:08;;;;;;;6.83;6.23;;;12.80;99.90;;;;;;5052961;28;20658;-67
2022/04/13 00:40:38;;;;;;;7.47;6.20;;;12.80;99.90;;;;;;5051739;28;20205;-66
2022/04/13 00:43:04;;;;;;;9.87;6.70;;;12.80;99.90;;;;;;5052524;28;20214;-67
2022/04/13 00:45:29;;;;;;;7.43;6.10;;;12.80;99.90;;;;;;5052482;28;20666;-67
2022/04/13 00:47:55;;;;;;;7.43;6.57;;;12.80;99.90;;;;;;5052630;28;20179;-66
2022/04/13 00:50:21;;;;;;;7.53;6.00;;;13.00;99.90;;;;;;5051594;28;20189;-67
2022/04/13 00:52:48;;;;;;;9.03;6.50;;;13.00;99.90;;;;;;5052632;28;20446;-67
2022/04/13 00:55:15;;;;;;;7.13;6.40;;;13.10;99.90;;;;;;5051145;28;20240;-66
2022/04/13 00:57:42;;;;;;;7.30;6.60;;;13.20;99.90;;;;;;5052572;28;20201;-67
2022/04/13 01:00:10;;;;;;;6.77;6.27;;;13.20;99.90;;;;;;5052469;28;20179;-67
2022/04/13 01:02:42;;;;;;;7.20;6.50;;;13.40;99.90;;;;;;5052591;28;20187;-66
2022/04/13 01:05:08;;;;;;;7.37;5.43;;;13.40;99.90;;;;;;5052078;28;20182;-68
2022/04/13 01:07:35;;;;;;;11.73;6.53;;;13.40;99.90;;;;;;5052580;28;20183;-66
2022/04/13 01:10:05;;;;;;;7.30;6.70;;;13.40;99.90;;;;;;5051949;28;20775;-66
2022/04/13 01:12:31;;;;;;;7.10;6.47;;;13.40;99.90;;;;;;5052622;28;20786;-67
2022/04/13 01:14:57;;;;;;;7.63;6.90;;;13.40;99.90;;;;;;5060900;28;20288;-67
2022/04/13 01:17:23;;;;;;;6.77;6.20;;;13.50;99.90;;;;;;5072292;28;20312;-67
2022/04/13 01:19:49;;;;;;;11.77;6.47;;;13.50;99.90;;;;;;5071131;28;20178;-67
2022/04/13 01:22:18;;;;;;;6.50;5.83;;;13.50;99.90;;;;;;5071926;28;20193;-66
2022/04/13 01:24:44;;;;;;;8.17;6.90;;;13.50;99.90;;;;;;5071535;28;20247;-67
2022/04/13 01:27:10;;;;;;;6.97;6.30;;;13.50;99.90;;;;;;5071939;28;20235;-66
2022/04/13 01:29:36;;;;;;;7.80;7.17;;;13.40;99.90;;;;;;5072099;28;20212;-68
2022/04/13 01:32:03;;;;;;;7.03;6.53;;;13.40;99.90;;;;;;5071795;28;20208;-67
2022/04/13 01:34:28;;;;;;;8.37;7.57;;;13.40;99.90;;;;;;5071677;28;20671;-66
2022/04/13 01:36:54;;;;;;;9.13;7.60;;;13.30;99.90;;;;;;5070359;28;20181;-66
2022/04/13 01:39:20;;;;;;;6.87;6.07;;;13.30;99.90;;;;;;5071940;28;20159;-67
2022/04/13 01:41:46;;;;;;;7.77;6.83;;;13.30;99.90;;;;;;5071753;28;20205;-66
2022/04/13 01:44:15;;;;;;;9.10;6.20;;;13.30;99.90;;;;;;5071974;28;20170;-66
2022/04/13 01:46:41;;;;;;;7.53;6.83;;;13.30;99.90;;;;;;5071774;28;20162;-67
2022/04/13 01:49:06;;;;;;;9.43;6.77;;;13.30;99.90;;;;;;5071719;28;20170;-66
2022/04/13 01:51:32;;;;;;;8.13;6.83;;;13.30;99.90;;;;;;5071734;28;20181;-67
2022/04/13 01:53:57;;;;;;;7.67;6.83;;;13.30;99.90;;;;;;5071513;28;20289;-66
2022/04/13 01:56:23;;;;;;;8.40;6.80;;;13.20;99.90;;;;;;5084964;28;20170;-66
2022/04/13 01:58:49;;;;;;;7.00;6.40;;;13.20;99.90;;;;;;5082206;28;20193;-68
2022/04/13 02:01:14;;;;;;;7.93;6.50;;;13.20;99.90;;;;;;5082962;28;20181;-67
2022/04/13 02:03:40;;;;;;;7.50;6.57;;;13.10;99.90;;;;;;5075312;28;20197;-66
2022/04/13 02:06:06;;;;;;;7.57;6.70;;;13.10;99.90;;;;;;5071206;28;20174;-66
2022/04/13 02:08:32;;;;;;;7.53;6.47;;;13.00;99.90;;;;;;5071708;28;20186;-66
2022/04/13 02:10:58;;;;;;;7.83;6.20;;;12.90;99.90;;;;;;5071327;28;20610;-67
2022/04/13 02:13:24;;;;;;;7.60;6.50;;;12.80;99.90;;;;;;5071796;28;20237;-67
2022/04/13 02:15:49;;;;;;;6.63;6.03;;;12.70;99.90;;;;;;5053147;28;20185;-66
2022/04/13 02:18:15;;;;;;;7.73;6.77;;;12.70;99.90;;;;;;5051607;28;20228;-67
2022/04/13 02:20:41;;;;;;;7.33;6.70;;;12.60;99.90;;;;;;5051448;28;20543;-67
2022/04/13 02:23:07;;;;;;;7.60;6.90;;;12.60;99.90;;;;;;5053711;28;20186;-66
2022/04/13 02:25:35;;;;;;;6.73;6.10;;;12.50;99.90;;;;;;5055220;28;20320;-66
2022/04/13 02:28:04;;;;;;;7.00;6.30;;;12.50;99.90;;;;;;5053887;28;20186;-66
2022/04/13 02:30:30;;;;;;;6.93;6.40;;;12.40;99.90;;;;;;5055560;28;20183;-66
2022/04/13 02:32:55;;;;;;;8.23;7.33;;;12.30;99.90;;;;;;5055063;28;20198;-66
2022/04/13 02:35:21;;;;;;;8.13;6.50;;;12.30;99.90;;;;;;5055003;28;20206;-66
2022/04/13 02:37:47;;;;;;;7.87;7.10;;;12.20;99.90;;;;;;5053909;28;20182;-66
2022/04/13 02:40:13;;;;;;;7.57;6.87;;;12.20;99.90;;;;;;5055334;28;20195;-67
2022/04/13 02:42:39;;;;;;;8.10;7.33;;;12.10;99.90;;;;;;5055041;28;20210;-66
2022/04/13 02:45:05;;;;;;;8.57;7.67;;;12.00;99.90;;;;;;5054375;28;20179;-66
2022/04/13 02:47:35;;;;;;;8.60;7.40;;;12.00;99.90;;;;;;5055182;28;20648;-66
2022/04/13 02:50:01;;;;;;;8.93;7.40;;;11.90;99.90;;;;;;5054745;28;20194;-66
2022/04/13 02:52:29;;;;;;;8.10;6.80;;;11.80;99.90;;;;;;5054970;28;20234;-67
2022/04/13 02:54:58;;;;;;;7.40;6.90;;;11.80;99.90;;;;;;5054569;28;20230;-66
2022/04/13 02:57:25;;;;;;;8.13;6.77;;;11.80;99.90;;;;;;5054987;28;20245;-67
2022/04/13 02:59:51;;;;;;;7.27;6.70;;;11.80;99.90;;;;;;5054676;28;20297;-67
2022/04/13 03:02:17;;;;;;;9.63;7.03;;;11.80;99.90;;;;;;5055036;28;20840;-67
2022/04/13 03:04:44;;;;;;;7.80;7.20;;;11.80;99.90;;;;;;5054420;28;20542;-66
2022/04/13 03:07:11;;;;;;;7.83;7.23;;;11.80;99.90;;;;;;5054490;28;20210;-66
2022/04/13 03:09:37;;;;;;;8.20;7.50;;;11.80;99.90;;;;;;5055022;28;20174;-66
2022/04/13 03:12:04;;;;;;;9.50;7.93;;;11.90;99.90;;;;;;5054562;28;20199;-66
2022/04/13 03:14:29;;;;;;;9.83;6.57;;;12.00;99.90;;;;;;5060039;28;20194;-66
2022/04/13 03:16:55;;;;;;;6.93;6.43;;;12.00;99.90;;;;;;5074293;28;20170;-66
2022/04/13 03:19:21;;;;;;;7.90;7.17;;;12.00;99.90;;;;;;5073772;28;20631;-66
2022/04/13 03:21:51;;;;;;;9.93;7.00;;;12.00;99.90;;;;;;5074083;28;20200;-67
2022/04/13 03:24:21;;;;;;;7.80;7.10;;;12.00;99.90;;;;;;5074829;28;20261;-66
2022/04/13 03:26:46;;;;;;;9.77;7.47;;;12.00;99.90;;;;;;5074139;28;20201;-66
2022/04/13 03:29:12;;;;;;;12.77;7.77;;;12.10;99.90;;;;;;5074076;28;20228;-67
2022/04/13 03:31:38;;;;;;;7.87;7.10;;;12.10;99.90;;;;;;5074252;28;20173;-67
2022/04/13 03:34:03;;;;;;;8.40;7.67;;;12.10;99.90;;;;;;5073833;28;20209;-67
2022/04/13 03:36:29;;;;;;;9.20;7.17;;;12.10;99.90;;;;;;5074177;28;20212;-67
2022/04/13 03:38:55;;;;;;;8.40;7.00;;;12.10;99.90;;;;;;5073866;28;20187;-66
2022/04/13 03:41:20;;;;;;;7.87;7.03;;;12.10;99.90;;;;;;5074381;28;20201;-66
2022/04/13 03:43:46;;;;;;;8.63;7.77;;;12.10;99.90;;;;;;5074440;28;20251;-67
2022/04/13 03:46:11;;;;;;;7.57;6.87;;;12.10;99.90;;;;;;5073879;28;20201;-68
2022/04/13 03:48:37;;;;;;;8.50;6.87;;;12.10;99.90;;;;;;5072906;28;20549;-67
2022/04/13 03:51:03;;;;;;;7.60;7.00;;;12.20;99.90;;;;;;5073661;28;20232;-67
2022/04/13 03:53:29;;;;;;;9.70;7.40;;;12.20;99.90;;;;;;5073740;28;20733;-67
2022/04/13 03:55:55;;;;;;;9.27;7.90;;;12.30;99.90;;;;;;5072030;28;20178;-67
2022/04/13 03:58:20;;;;;;;8.07;7.37;;;12.30;99.90;;;;;;5073164;28;20174;-66
2022/04/13 04:00:46;;;;;;;7.90;7.20;;;12.30;99.90;;;;;;5073723;28;20257;-67
2022/04/13 04:03:12;;;;;;;8.20;7.50;;;12.30;99.90;;;;;;5073447;28;20269;-67
2022/04/13 04:05:37;;;;;;;7.90;7.33;;;12.30;99.90;;;;;;5073500;28;20640;-67
2022/04/13 04:08:04;;;;;;;8.30;7.37;;;12.30;99.90;;;;;;5073571;28;20174;-66
2022/04/13 04:10:29;;;;;;;7.90;7.10;;;12.40;99.90;;;;;;5072316;28;20174;-67
2022/04/13 04:12:55;;;;;;;8.73;7.30;;;12.30;99.90;;;;;;5071819;28;20201;-66
2022/04/13 04:15:21;;;;;;;8.83;7.50;;;12.30;99.90;;;;;;5058986;28;20252;-67
2022/04/13 04:17:46;;;;;;;9.37;7.23;;;12.20;99.90;;;;;;5052076;28;20178;-66
2022/04/13 04:20:12;;;;;;;8.53;6.93;;;12.20;99.90;;;;;;5052281;28;20257;-66
2022/04/13 04:22:38;;;;;;;7.53;6.53;;;12.20;99.90;;;;;;5053661;28;20629;-66
2022/04/13 04:25:06;;;;;;;7.40;6.80;;;12.20;99.90;;;;;;5052773;28;20186;-66
2022/04/13 04:27:32;;;;;;;7.90;7.20;;;12.10;99.90;;;;;;5051950;28;20167;-66
2022/04/13 04:29:58;;;;;;;7.90;7.10;;;12.10;99.90;;;;;;5051892;28;20189;-66
2022/04/13 04:32:24;;;;;;;10.17;7.20;;;12.10;99.90;;;;;;5053121;28;20540;-66
2022/04/13 04:34:49;;;;;;;11.90;6.87;;;12.10;99.90;;;;;;5052572;28;20264;-66
2022/04/13 04:37:15;;;;;;;8.93;8.07;;;12.10;99.90;;;;;;5051495;28;20267;-66
2022/04/13 04:39:41;;;;;;;8.67;6.60;;;12.10;99.90;;;;;;5052994;28;20664;-66
2022/04/13 04:42:07;;;;;;;7.97;7.17;;;12.00;99.90;;;;;;5052857;28;20627;-68
2022/04/13 04:44:32;;;;;;;7.40;6.90;;;12.00;99.90;;;;;;5052077;28;20182;-66
2022/04/13 04:46:58;;;;;;;7.93;7.23;;;12.00;99.90;;;;;;5052360;28;20543;-68
2022/04/13 04:49:23;;;;;;;7.90;7.20;;;12.10;99.90;;;;;;5051667;28;20183;-67
2022/04/13 04:51:49;;;;;;;7.50;6.80;;;12.10;99.90;;;;;;5052588;28;20237;-67
2022/04/13 04:54:15;;;;;;;8.47;7.73;;;12.10;99.90;;;;;;5051359;28;20218;-67
2022/04/13 04:56:40;;;;;;;9.17;7.20;;;12.10;99.90;;;;;;5052300;28;20742;-67
2022/04/13 04:59:06;;;;;;;8.17;7.40;;;12.10;99.90;;;;;;5052354;28;20178;-67
2022/04/13 05:01:32;;;;;;;12.90;7.97;;;12.20;99.90;;;;;;5052391;28;20194;-66
2022/04/13 05:03:57;;;;;;;10.20;7.57;;;12.20;99.90;;;;;;5052494;28;20179;-67
2022/04/13 05:06:28;;;;;;;7.50;6.90;;;12.20;99.90;;;;;;5052342;28;20178;-66
2022/04/13 05:08:55;;;;;;;8.73;7.97;;;12.30;99.90;;;;;;5052789;28;20179;-66
2022/04/13 05:11:21;;;;;;;14.43;7.37;;;12.30;99.90;;;;;;5052243;28;20171;-67
2022/04/13 05:13:47;;;;;;;9.37;8.13;;;12.40;99.90;;;;;;5052572;28;20202;-66
2022/04/13 05:16:17;;;;;;;8.53;7.47;;;12.40;99.90;;;;;;5071622;28;20189;-66
2022/04/13 05:18:45;;;;;;;8.97;7.33;;;12.50;99.90;;;;;;5072398;28;20181;-66
2022/04/13 05:21:11;;;;;;;8.67;7.10;;;12.50;99.90;;;;;;5069959;28;20177;-67
2022/04/13 05:23:37;;;;;;;9.73;7.47;;;12.60;99.90;;;;;;5072386;28;20190;-66
2022/04/13 05:26:03;;;;;;;8.63;6.70;;;12.60;99.90;;;;;;5071658;28;20178;-67
2022/04/13 05:28:29;;;;;;;13.23;7.13;;;12.70;99.90;;;;;;5072139;28;20174;-66
2022/04/13 05:30:55;;;;;;;8.87;6.77;;;12.80;99.90;;;;;;5071945;28;20249;-66
2022/04/13 05:33:22;;;;;;;7.97;7.27;;;12.90;99.90;;;;;;5072224;28;20189;-66
2022/04/13 05:35:47;;;;;;;7.73;6.93;;;13.00;99.90;;;;;;5071403;28;20193;-66
2022/04/13 05:38:13;;;;;;;7.43;6.67;;;13.00;99.90;;;;;;5071907;28;20176;-66
2022/04/13 05:40:39;;;;;;;10.73;8.07;;;13.10;99.90;;;;;;5072193;28;20205;-67
2022/04/13 05:43:04;;;;;;;9.03;8.10;;;13.40;99.90;;;;;;5052958;28;20234;-67
2022/04/13 05:45:30;;;;;;;9.07;8.13;;;13.50;99.90;;;;;;5051376;28;20233;-67
2022/04/13 05:47:57;;;;;;;15.27;7.80;;;13.60;99.90;;;;;;5051639;28;20551;-67
2022/04/13 05:50:23;;;;;;;8.57;7.90;;;13.70;99.90;;;;;;5056307;28;20174;-67
2022/04/13 05:52:49;;;;;;;9.63;8.63;;;13.80;99.90;;;;;;5070115;28;20285;-67
2022/04/13 05:55:14;;;;;;;9.90;7.07;;;13.80;99.90;;;;;;5069911;28;20293;-67
2022/04/13 05:57:41;;;;;;;8.13;7.33;;;13.90;99.90;;;;;;5070182;28;20761;-67
2022/04/13 06:00:10;;;;;;;10.87;6.30;;;13.80;99.90;;;;;;5079436;28;20193;-67
2022/04/13 06:02:36;;;;;;;11.10;6.63;;;13.80;99.90;;;;;;5088435;28;20310;-68
2022/04/13 06:05:03;;;;;;;8.67;6.40;;;13.80;99.90;;;;;;5085043;28;20174;-68
2022/04/13 06:07:28;;;;;;;8.47;6.97;;;13.90;99.90;;;;;;5088830;28;20182;-67
2022/04/13 06:09:54;;;;;;;14.17;8.07;;;14.10;99.90;;;;;;5083854;28;20308;-66
2022/04/13 06:12:23;;;;;;;8.60;7.40;;;14.10;99.90;;;;;;5071425;28;20304;-66
2022/04/13 06:14:49;;;;;;;10.70;7.70;;;14.20;99.90;;;;;;5062670;28;20202;-66
2022/04/13 06:17:16;;;;;;;11.70;7.77;;;14.30;99.90;;;;;;5050328;28;20166;-66
2022/04/13 06:19:42;;;;;;;14.13;7.60;;;14.40;99.90;;;;;;5049005;28;20170;-67
2022/04/13 06:22:08;;;;;;;9.23;8.20;;;14.60;99.90;;;;;;5051104;28;20706;-67
2022/04/13 06:24:33;;;;;;;8.93;7.87;;;14.70;99.90;;;;;;5051222;28;20183;-68
2022/04/13 06:26:59;;;;;;;12.67;7.77;;;14.90;99.90;;;;;;5051157;28;20171;-68
2022/04/13 06:29:24;;;;;;;9.77;8.23;;;15.20;99.90;;;;;;5051079;28;20178;-67
2022/04/13 06:31:50;;;;;;;9.23;7.47;;;15.40;99.90;;;;;;5051189;28;20609;-67
2022/04/13 06:34:16;;;;;;;8.03;6.73;;;15.70;99.90;;;;;;5050008;28;20469;-68
2022/04/13 06:36:42;;;;;;;10.40;7.27;;;16.10;99.90;;;;;;5049891;28;20539;-67
2022/04/13 06:39:08;;;;;;;8.20;7.17;;;16.40;99.90;;;;;;5049688;28;20607;-67
2022/04/13 06:41:33;;;;;;;10.00;7.00;;;16.70;99.90;;;;;;5049750;28;20183;-67
2022/04/13 06:43:59;;;;;;;10.17;7.23;;;17.20;99.90;;;;;;5065069;28;20969;-67
2022/04/13 06:46:25;;;;;;;10.80;6.90;;;17.60;99.90;;;;;;5071101;28;20186;-67
2022/04/13 06:48:50;;;;;;;13.87;6.77;;;18.10;99.90;;;;;;5069921;28;20324;-67
2022/04/13 06:51:16;;;;;;;10.13;6.80;;;18.40;99.90;;;;;;5071188;28;20231;-66
2022/04/13 06:53:41;;;;;;;9.27;6.57;;;18.60;99.90;;;;;;5070751;28;20198;-66
2022/04/13 06:56:07;;;;;;;8.50;6.60;;;18.90;99.90;;;;;;5069558;28;20189;-67
2022/04/13 06:58:33;;;;;;;8.63;6.53;;;19.30;99.90;;;;;;5069794;28;20185;-67
2022/04/13 07:00:58;;;;;;;9.93;6.40;;;19.60;99.90;;;;;;5069689;28;20170;-67
2022/04/13 07:03:25;;;;;;;7.85;6.60;;;20.00;99.90;;;;;;5069529;28;20348;-66
2022/04/13 07:05:50;;;;;;;9.85;7.00;;;20.20;99.90;;;;;;5070811;28;20519;-64
2022/04/13 07:08:16;;;;;;;7.50;6.60;;;20.40;99.90;;;;;;5072068;28;20181;-67
2022/04/13 07:10:42;;;;;;;13.63;8.32;;;20.50;99.90;;;;;;5074882;28;20162;-67
2022/04/13 07:13:07;;;;;;;9.63;6.60;;;20.80;99.90;;;;;;5074046;28;20658;-67
2022/04/13 07:15:33;;;;;;;13.20;6.63;;;21.00;99.90;;;;;;5059635;28;20206;-67
2022/04/13 07:17:58;;;;;;;7.70;6.85;;;21.40;99.90;;;;;;5054310;28;20636;-67
2022/04/13 07:20:24;;;;;;;8.93;6.30;;;21.50;99.90;;;;;;5052957;28;20711;-65
2022/04/13 07:22:54;;;;;;;10.90;7.30;;;21.40;99.90;;;;;;5054105;28;20201;-65
2022/04/13 07:25:21;;;;;;;9.52;7.18;;;21.20;99.90;;;;;;5053809;28;20206;-64
2022/04/13 07:27:48;;;;;;;8.70;6.40;;;21.30;99.90;;;;;;5054277;28;20250;-67
2022/04/13 07:30:15;;;;;;;7.13;5.75;;;21.30;99.90;;;;;;5052743;28;20175;-65
2022/04/13 07:32:46;;;;;;;9.15;6.40;;;21.30;99.90;;;;;;5054142;28;20194;-67
2022/04/13 07:35:12;;;;;;;10.75;6.60;;;21.30;99.90;;;;;;5054024;28;20309;-67
2022/04/13 07:37:41;;;;;;;11.32;7.15;;;21.40;99.90;;;;;;5054016;28;20187;-65
2022/04/13 07:40:09;;;;;;;8.68;6.20;;;21.40;99.90;;;;;;5053027;28;20205;-64
2022/04/13 07:42:35;;;;;;;9.40;6.40;;;21.30;99.90;;;;;;5054423;28;20234;-64
2022/04/13 07:45:03;;;;;;;11.00;7.15;;;21.00;99.90;;;;;;5052077;28;20738;-67
2022/04/13 07:47:29;;;;;;;12.73;6.45;;;21.00;99.90;;;;;;5053973;28;20171;-67
2022/04/13 07:49:54;;;;;;;12.27;7.10;;;21.10;99.90;;;;;;5053684;28;20174;-65
2022/04/13 07:52:20;;;;;;;7.97;6.18;;;21.30;99.90;;;;;;5053722;28;20664;-65
2022/04/13 07:54:46;;;;;;;12.13;5.78;;;21.70;99.90;;;;;;5051998;28;20237;-65
2022/04/13 07:57:12;;;;;;;7.65;6.72;;;22.00;99.90;;;;;;5053352;28;20219;-65
2022/04/13 07:59:37;;;;;;;11.45;7.00;;;22.20;99.90;;;;;;5053621;28;20174;-65
2022/04/13 08:02:04;;;;;;;8.57;6.35;;;22.30;99.90;;;;;;5053567;28;20210;-65
2022/04/13 08:04:29;;;;;;;12.68;7.20;;;22.50;99.90;;;;;;5053527;28;20167;-65
2022/04/13 08:06:55;;;;;;;11.13;7.22;;;22.60;99.90;;;;;;5052045;28;20201;-67
2022/04/13 08:09:21;;;;;;;9.68;7.03;;;22.70;99.90;;;;;;5053485;28;20201;-67
2022/04/13 08:11:52;;;;;;;10.10;6.63;;;22.80;99.90;;;;;;5053376;28;20194;-67
2022/04/13 08:14:21;;;;;;;8.85;7.22;;;23.00;99.90;;;;;;5057358;28;20603;-65
2022/04/13 08:16:47;;;;;;;10.43;6.78;;;23.00;99.90;;;;;;5073091;28;20249;-65
2022/04/13 08:19:12;;;;;;;9.90;6.82;;;23.20;99.90;;;;;;5071411;28;20202;-65
2022/04/13 08:21:38;;;;;;;9.48;6.75;;;23.30;99.90;;;;;;5070866;28;20212;-65
2022/04/13 08:24:05;;;;;;;12.55;7.03;;;23.50;99.90;;;;;;5073133;28;20261;-64
2022/04/13 08:26:31;;;;;;;11.82;7.18;;;23.40;99.90;;;;;;5071687;28;20174;-67
2022/04/13 08:28:56;;;;;;;10.00;7.28;;;23.40;99.90;;;;;;5072836;28;20601;-65
2022/04/13 08:31:22;;;;;;;13.65;8.13;;;23.30;99.90;;;;;;5073120;28;20178;-65
2022/04/13 08:33:48;;;;;;;12.20;7.85;;;23.20;99.90;;;;;;5072660;28;20178;-65
2022/04/13 08:36:14;;;;;;;10.90;7.95;;;23.10;99.90;;;;;;5072898;28;20265;-65
2022/04/13 08:38:40;;;;;;;7.68;6.85;;;23.30;99.90;;;;;;5072894;28;20600;-64
2022/04/13 08:41:20;;;;;;;9.48;7.50;;;23.80;99.90;;;;;;5071387;28;20277;-67
2022/04/13 08:43:51;;;;;;;8.73;7.75;;;24.10;99.90;;;;;;5072488;28;20288;-65
2022/04/13 08:46:24;;;;;;;9.70;7.45;;;24.30;99.90;;;;;;5072633;28;20166;-65
2022/04/13 08:48:52;;;;;;;10.07;8.38;;;24.50;99.90;;;;;;5072589;28;20220;-66
2022/04/13 08:51:21;;;;;;;11.60;7.88;;;24.40;99.90;;;;;;5072540;28;20600;-66
2022/04/13 08:53:50;;;;;;;16.50;8.70;;;24.30;99.90;;;;;;5072538;28;20170;-66
2022/04/13 08:56:19;;;;;;;13.05;8.65;;;24.50;99.90;;;;;;5072215;28;20166;-66
2022/04/13 08:58:49;;;;;;;12.95;9.20;;;24.50;99.90;;;;;;5072369;28;20223;-66
2022/04/13 09:01:36;;;;;;;10.95;8.07;;;24.80;99.90;;;;;;5071137;28;20210;-66
2022/04/13 09:04:07;;;;;;;15.20;8.05;;;24.90;99.90;;;;;;5072306;28;20697;-66
2022/04/13 09:06:35;;;;;;;15.15;8.50;;;25.10;99.90;;;;;;5071934;28;20651;-66
2022/04/13 09:09:01;;;;;;;14.23;8.93;;;25.60;99.90;;;;;;5072271;28;20262;-66
2022/04/13 09:11:31;;;;;;;13.77;8.85;;;26.10;99.90;;;;;;5072238;28;20639;-65
2022/04/13 09:13:58;;;;;;;10.02;8.10;;;26.50;99.90;;;;;;5070846;28;20209;-66
2022/04/13 09:16:24;;;;;;;13.18;8.43;;;26.90;99.90;;;;;;5052069;28;20171;-66
2022/04/13 09:18:50;;;;;;;14.68;7.72;;;27.10;99.90;;;;;;5052029;28;20224;-66
2022/04/13 09:21:20;;;;;;;11.93;8.25;;;27.30;98.30;;;;;;5051280;28;20167;-66
2022/04/13 09:23:46;;;;;;;12.00;9.30;;;27.40;98.90;;;;;;5051877;28;20186;-66
2022/04/13 09:26:13;;;;;;;12.25;8.00;;;27.70;99.90;;;;;;5051576;28;20509;-66
2022/04/13 09:28:39;;;;;;;10.15;8.65;;;28.10;99.50;;;;;;5051778;28;20210;-66
2022/04/13 09:31:05;;;;;;;14.80;10.45;;;28.50;98.80;;;;;;5050155;28;20198;-66
2022/04/13 09:33:31;;;;;;;14.77;8.70;;;28.40;96.70;;;;;;5050402;28;20195;-66
2022/04/13 09:35:57;;;;;;;17.48;9.48;;;27.40;97.20;;;;;;5051363;28;20201;-66
2022/04/13 09:38:24;;;;;;;11.63;9.45;;;26.40;99.10;;;;;;5051932;28;20636;-66
2022/04/13 09:40:53;;;;;;;13.10;9.00;;;25.80;99.90;;;;;;5051519;28;20225;-66
2022/04/13 09:43:22;;;;;;;10.90;9.57;;;25.20;99.90;;;;;;5052093;28;20210;-66
2022/04/13 09:45:50;;;;;;;11.63;9.00;;;24.50;99.90;;;;;;5049299;28;20171;-66
2022/04/13 09:48:18;;;;;;;16.17;10.20;;;23.90;99.90;;;;;;5050476;28;20224;-66
2022/04/13 09:50:50;;;;;;;13.57;9.10;;;23.50;99.90;;;;;;5051536;28;20179;-66
2022/04/13 09:53:17;;;;;;;10.35;8.52;;;23.40;99.90;;;;;;5051387;28;20198;-66
2022/04/13 09:56:03;;;;;;;11.90;8.82;;;23.30;99.90;;;;;;5051407;28;20206;-66
2022/04/13 09:58:33;;;;;;;10.68;9.18;;;23.20;99.90;;;;;;5051382;28;20183;-66
2022/04/13 10:01:03;;;;;;;12.20;8.75;;;23.20;99.90;;;;;;5051498;28;20177;-66
2022/04/13 10:03:28;;;;;;;13.80;8.57;;;23.50;99.90;;;;;;5052118;28;20226;-66
2022/04/13 10:05:58;;;;;;;11.85;8.68;;;23.90;99.90;;;;;;5051512;28;20236;-67
2022/04/13 10:08:26;;;;;;;10.80;8.38;;;24.40;99.90;;;;;;5064657;28;20232;-67
2022/04/13 10:10:54;;;;;;;9.73;8.23;;;24.80;99.90;;;;;;5063490;28;20205;-67
2022/04/13 10:13:43;;;;;;;10.88;8.38;;;25.30;99.90;;;;;;5064493;28;20198;-67
2022/04/13 10:16:12;;;;;;;14.52;8.40;;;25.60;99.90;;;;;;5073428;28;20177;-66
2022/04/13 10:18:58;;;;;;;11.23;7.47;;;25.90;99.90;;;;;;5070079;28;20178;-66
2022/04/13 10:21:47;;;;;;;14.23;8.70;;;26.40;99.90;;;;;;5070105;28;20689;-66
2022/04/13 10:24:25;;;;;;;10.85;7.57;;;26.90;99.50;;;;;;5071773;28;20216;-66
2022/04/13 10:27:05;;;;;;;9.88;7.43;;;26.90;99.40;;;;;;5072273;28;20180;-68
2022/04/13 10:29:33;;;;;;;10.75;7.72;;;26.80;99.40;;;;;;5071222;28;20721;-66
2022/04/13 10:32:09;;;;;;;9.95;7.70;;;26.90;98.90;;;;;;5070997;28;20202;-66
2022/04/13 10:34:41;;;;;;;11.13;7.38;;;27.40;98.90;;;;;;5070961;28;20197;-67
2022/04/13 10:37:09;;;;;;;12.10;7.07;;;27.90;98.00;;;;;;5071132;28;20253;-66
2022/04/13 10:39:36;;;;;;;9.35;6.53;;;28.30;96.30;;;;;;5069547;28;20293;-67
2022/04/13 10:42:06;;;;;;;9.52;5.63;;;28.30;94.60;;;;;;5070320;28;20228;-66
2022/04/13 10:44:53;;;;;;;9.00;6.07;;;28.60;95.80;;;;;;5074004;28;20166;-67
2022/04/13 10:47:40;;;;;;;7.32;5.43;;;28.60;94.60;;;;;;5073743;28;20227;-67
2022/04/13 10:50:07;;;;;;;6.00;5.40;;;28.00;95.10;;;;;;5074488;28;20190;-66
2022/04/13 10:52:39;;;;;;;5.60;4.70;;;27.80;95.10;;;;;;5073663;28;20197;-67
2022/04/13 10:55:13;;;;;;;9.32;6.00;;;28.10;94.10;;;;;;5074601;28;20597;-66
2022/04/13 10:57:55;;;;;;;7.75;4.85;;;27.70;94.70;;;;;;5074890;28;20193;-66
2022/04/13 11:00:23;;;;;;;8.35;5.40;;;27.50;96.70;;;;;;5074975;28;20223;-66
2022/04/13 11:02:55;;;;;;;8.55;5.50;;;27.10;95.30;;;;;;5074580;28;20182;-66
2022/04/13 11:05:22;;;;;;;7.57;6.43;;;26.70;98.40;;;;;;5074332;28;20536;-66
2022/04/13 11:07:55;;;;;;;8.23;6.55;;;26.50;97.00;;;;;;5074516;28;20170;-67
2022/04/13 11:10:21;;;;;;;7.35;6.40;;;26.10;96.40;;;;;;5074698;28;20640;-67
2022/04/13 11:12:48;;;;;;;12.85;8.13;;;25.80;97.90;;;;;;5074428;28;20243;-67
2022/04/13 11:15:13;;;;;;;11.32;7.80;;;25.70;97.90;;;;;;5061138;28;20273;-67
2022/04/13 11:17:43;;;;;;;12.65;9.10;;;25.80;98.50;;;;;;5054427;28;20163;-67
2022/04/13 11:20:19;;;;;;;10.88;8.93;;;25.70;97.80;;;;;;5053933;28;20163;-67
2022/04/13 11:22:45;;;;;;;16.38;9.68;;;25.70;99.20;;;;;;5053424;28;20265;-67
2022/04/13 11:25:31;;;;;;;11.70;9.43;;;25.50;99.90;;;;;;5054062;28;20595;-67
2022/04/13 11:27:57;;;;;;;15.05;9.45;;;25.40;99.40;;;;;;5054024;28;20257;-67
2022/04/13 11:30:22;;;;;;;14.98;9.95;;;25.70;99.90;;;;;;5054345;28;20656;-67
2022/04/13 11:32:49;;;;;;;12.73;9.25;;;26.10;98.80;;;;;;5054932;28;20691;-66
2022/04/13 11:35:25;;;;;;;13.30;9.98;;;26.30;99.40;;;;;;5074054;28;20289;-67
2022/04/13 11:38:05;;;;;;;12.57;10.13;;;26.70;99.40;;;;;;5074257;28;20166;-67
2022/04/13 11:40:32;;;;;;;11.88;9.95;;;26.50;97.60;;;;;;5074049;28;20162;-65
2022/04/13 11:43:03;;;;;;;17.33;10.00;;;26.10;98.20;;;;;;5073535;28;20213;-65
2022/04/13 11:45:30;;;;;;;14.55;10.35;;;25.70;98.80;;;;;;5073552;28;20212;-65
2022/04/13 11:48:00;;;;;;;19.15;10.57;;;25.50;99.00;;;;;;5073010;28;20181;-65
2022/04/13 11:50:28;;;;;;;16.42;10.60;;;24.90;99.40;;;;;;5074076;28;20185;-65
2022/04/13 11:52:58;;;;;;;14.93;9.32;;;24.80;99.90;;;;;;5073501;28;20243;-66
2022/04/13 11:55:24;;;;;;;12.13;8.48;;;24.80;99.90;;;;;;5073168;28;20737;-66
2022/04/13 11:58:06;;;;;;;12.13;9.27;;;25.10;99.90;;;;;;5073620;28;20170;-65
2022/04/13 12:00:54;;;;;;;9.65;7.65;;;25.20;99.90;;;;;;5073793;28;20170;-65
2022/04/13 12:03:39;;;;;;;10.80;6.95;;;25.00;99.90;;;;;;5073824;28;20272;-64
2022/04/13 12:06:13;;;;;;;7.80;7.03;;;25.10;99.90;;;;;;5073122;28;20185;-66
2022/04/13 12:08:44;;;;;;;8.75;6.53;;;25.20;99.90;;;;;;5073406;28;20541;-65
2022/04/13 12:11:28;;;;;;;10.23;6.80;;;25.40;99.90;;;;;;5073581;28;20210;-65
2022/04/13 12:14:00;;;;;;;8.80;6.75;;;25.80;99.90;;;;;;5073046;28;20221;-65
2022/04/13 12:16:38;;;;;;;9.55;7.28;;;26.20;99.20;;;;;;5073193;28;20170;-65
2022/04/13 12:19:09;;;;;;;8.35;6.85;;;26.40;99.00;;;;;;5073030;28;20174;-64
2022/04/13 12:21:39;;;;;;;10.18;7.20;;;26.60;99.50;;;;;;5070851;28;20204;-65
2022/04/13 12:24:10;;;;;;;7.75;6.68;;;26.90;97.40;;;;;;5071619;28;20218;-66
2022/04/13 12:26:41;;;;;;;7.03;6.32;;;27.10;97.00;;;;;;5072853;28;20182;-65
2022/04/13 12:29:17;;;;;;;8.70;6.60;;;27.60;98.10;;;;;;5073088;28;20258;-65
2022/04/13 12:31:54;;;;;;;12.43;6.85;;;27.60;96.90;;;;;;5072749;28;20190;-66
2022/04/13 12:34:22;;;;;;;9.23;7.35;;;27.50;96.90;;;;;;5072755;28;20284;-65
2022/04/13 12:36:51;;;;;;;9.50;6.93;;;27.20;97.60;;;;;;5072388;28;20246;-65
2022/04/13 12:39:17;;;;;;;12.07;6.78;;;26.80;98.80;;;;;;5072661;28;20185;-64
2022/04/13 12:41:42;;;;;;;7.85;6.55;;;26.50;98.80;;;;;;5070989;28;20210;-65
2022/04/13 12:44:08;;;;;;;12.25;7.57;;;25.90;98.50;;;;;;5072512;28;20178;-66
2022/04/13 12:46:34;;;;;;;12.13;6.78;;;25.30;99.10;;;;;;5072624;28;20557;-66